sensor_id;sensor_type;location;lat;lon;timestamp;P1;durP1;ratioP1;P2;durP2;ratioP2
39930;SDS011;26635;-35.248;149.138;2023-04-24T00:00:42;5.00;;;1.90;;
39930;SDS011;26635;-35.248;149.138;2023-04-24T00:03:14;5.45;;;1.90;;
39930;SDS011;26635;-35.248;149.138;2023-04-24T00:05:47;5.72;;;1.73;;
39930;SDS011;26635;-35.248;149.138;2023-04-24T00:08:19;3.25;;;1.40;;
39930;SDS011;26635;-35.248;149.138;2023-04-24T00:10:54;2.25;;;0.95;;
39930;SDS011;26635;-35.248;149.138;2023-04-24T00:13:25;2.20;;;1.05;;
39930;SDS011;26635;-35.248;149.138;2023-04-24T00:15:57;4.00;;;1.88;;
39930;SDS011;26635;-35.248;149.138;2023-04-24T00:18:28;2.88;;;1.65;;
39930;SDS011;26635;-35.248;149.138;2023-04-24T00:20:59;5.45;;;1.90;;
39930;SDS011;26635;-35.248;149.138;2023-04-24T00:23:31;5.07;;;1.75;;
39930;SDS011;26635;-35.248;149.138;2023-04-24T00:26:04;2.63;;;1.20;;
39930;SDS011;26635;-35.248;149.138;2023-04-24T00:28:35;3.88;;;1.35;;
39930;SDS011;26635;-35.248;149.138;2023-04-24T00:31:07;3.10;;;1.20;;
39930;SDS011;26635;-35.248;149.138;2023-04-24T00:33:47;4.60;;;1.08;;
39930;SDS011;26635;-35.248;149.138;2023-04-24T00:36:20;2.55;;;1.00;;
39930;SDS011;26635;-35.248;149.138;2023-04-24T00:38:54;3.47;;;1.45;;
39930;SDS011;26635;-35.248;149.138;2023-04-24T00:41:32;1.70;;;0.82;;
39930;SDS011;26635;-35.248;149.138;2023-04-24T00:44:06;1.80;;;0.90;;
39930;SDS011;26635;-35.248;149.138;2023-04-24T00:46:45;1.67;;;0.80;;
39930;SDS011;26635;-35.248;149.138;2023-04-24T00:49:21;3.55;;;1.02;;
39930;SDS011;26635;-35.248;149.138;2023-04-24T00:51:52;4.32;;;0.93;;
39930;SDS011;26635;-35.248;149.138;2023-04-24T00:54:30;3.08;;;0.80;;
39930;SDS011;26635;-35.248;149.138;2023-04-24T00:57:02;3.38;;;1.05;;
39930;SDS011;26635;-35.248;149.138;2023-04-24T00:59:38;3.00;;;0.80;;
39930;SDS011;26635;-35.248;149.138;2023-04-24T01:02:25;3.05;;;0.75;;
39930;SDS011;26635;-35.248;149.138;2023-04-24T01:05:14;2.65;;;0.82;;
39930;SDS011;26635;-35.248;149.138;2023-04-24T01:08:09;1.88;;;0.80;;
39930;SDS011;26635;-35.248;149.138;2023-04-24T01:10:52;3.42;;;0.93;;
39930;SDS011;26635;-35.248;149.138;2023-04-24T01:13:32;3.53;;;1.27;;
39930;SDS011;26635;-35.248;149.138;2023-04-24T01:16:05;7.25;;;1.77;;
39930;SDS011;26635;-35.248;149.138;2023-04-24T01:18:51;2.45;;;0.70;;
39930;SDS011;26635;-35.248;149.138;2023-04-24T01:21:28;3.83;;;1.07;;
39930;SDS011;26635;-35.248;149.138;2023-04-24T01:24:05;2.05;;;0.60;;
39930;SDS011;26635;-35.248;149.138;2023-04-24T01:26:36;2.45;;;0.80;;
39930;SDS011;26635;-35.248;149.138;2023-04-24T01:29:28;1.00;;;0.45;;
39930;SDS011;26635;-35.248;149.138;2023-04-24T01:32:00;1.70;;;0.80;;
39930;SDS011;26635;-35.248;149.138;2023-04-24T01:34:34;1.88;;;0.75;;
39930;SDS011;26635;-35.248;149.138;2023-04-24T01:37:08;2.85;;;0.50;;
39930;SDS011;26635;-35.248;149.138;2023-04-24T01:39:47;1.02;;;0.60;;
39930;SDS011;26635;-35.248;149.138;2023-04-24T01:42:30;2.15;;;0.70;;
39930;SDS011;26635;-35.248;149.138;2023-04-24T01:45:06;3.30;;;0.90;;
39930;SDS011;26635;-35.248;149.138;2023-04-24T01:48:06;1.75;;;0.40;;
39930;SDS011;26635;-35.248;149.138;2023-04-24T01:50:41;2.22;;;0.60;;
39930;SDS011;26635;-35.248;149.138;2023-04-24T01:53:15;1.50;;;0.60;;
39930;SDS011;26635;-35.248;149.138;2023-04-24T01:56:00;2.95;;;1.13;;
39930;SDS011;26635;-35.248;149.138;2023-04-24T01:58:45;2.75;;;0.75;;
39930;SDS011;26635;-35.248;149.138;2023-04-24T02:01:20;1.02;;;0.40;;
39930;SDS011;26635;-35.248;149.138;2023-04-24T02:03:55;2.13;;;0.73;;
39930;SDS011;26635;-35.248;149.138;2023-04-24T02:06:35;1.05;;;0.57;;
39930;SDS011;26635;-35.248;149.138;2023-04-24T02:09:12;2.78;;;0.80;;
39930;SDS011;26635;-35.248;149.138;2023-04-24T02:11:42;3.88;;;0.55;;
39930;SDS011;26635;-35.248;149.138;2023-04-24T02:14:13;1.50;;;0.77;;
39930;SDS011;26635;-35.248;149.138;2023-04-24T02:16:52;1.77;;;0.60;;
39930;SDS011;26635;-35.248;149.138;2023-04-24T02:19:25;1.42;;;0.52;;
39930;SDS011;26635;-35.248;149.138;2023-04-24T02:22:05;1.95;;;0.55;;
39930;SDS011;26635;-35.248;149.138;2023-04-24T02:24:39;2.35;;;0.88;;
39930;SDS011;26635;-35.248;149.138;2023-04-24T02:27:14;2.33;;;0.95;;
39930;SDS011;26635;-35.248;149.138;2023-04-24T02:29:52;4.43;;;0.77;;
39930;SDS011;26635;-35.248;149.138;2023-04-24T02:32:28;2.15;;;0.70;;
39930;SDS011;26635;-35.248;149.138;2023-04-24T02:34:59;1.85;;;0.60;;
39930;SDS011;26635;-35.248;149.138;2023-04-24T02:37:33;4.15;;;1.50;;
39930;SDS011;26635;-35.248;149.138;2023-04-24T02:40:12;2.85;;;0.65;;
39930;SDS011;26635;-35.248;149.138;2023-04-24T02:42:43;3.38;;;0.60;;
39930;SDS011;26635;-35.248;149.138;2023-04-24T02:45:14;2.75;;;0.70;;
39930;SDS011;26635;-35.248;149.138;2023-04-24T02:48:10;3.28;;;0.98;;
39930;SDS011;26635;-35.248;149.138;2023-04-24T02:50:41;1.88;;;0.63;;
39930;SDS011;26635;-35.248;149.138;2023-04-24T02:53:17;0.95;;;0.38;;
39930;SDS011;26635;-35.248;149.138;2023-04-24T02:55:48;2.50;;;0.82;;
39930;SDS011;26635;-35.248;149.138;2023-04-24T02:58:19;2.63;;;0.77;;
39930;SDS011;26635;-35.248;149.138;2023-04-24T03:01:02;4.13;;;0.73;;
39930;SDS011;26635;-35.248;149.138;2023-04-24T03:03:40;2.45;;;0.65;;
39930;SDS011;26635;-35.248;149.138;2023-04-24T03:06:24;1.40;;;0.50;;
39930;SDS011;26635;-35.248;149.138;2023-04-24T03:09:00;2.67;;;0.93;;
39930;SDS011;26635;-35.248;149.138;2023-04-24T03:11:31;3.63;;;1.00;;
39930;SDS011;26635;-35.248;149.138;2023-04-24T03:14:02;2.08;;;1.10;;
39930;SDS011;26635;-35.248;149.138;2023-04-24T03:16:41;2.88;;;0.68;;
39930;SDS011;26635;-35.248;149.138;2023-04-24T03:19:16;1.58;;;0.60;;
39930;SDS011;26635;-35.248;149.138;2023-04-24T03:21:49;1.50;;;0.45;;
39930;SDS011;26635;-35.248;149.138;2023-04-24T03:24:42;1.60;;;0.60;;
39930;SDS011;26635;-35.248;149.138;2023-04-24T03:27:35;1.55;;;0.50;;
39930;SDS011;26635;-35.248;149.138;2023-04-24T03:30:12;1.80;;;0.55;;
39930;SDS011;26635;-35.248;149.138;2023-04-24T03:32:52;2.63;;;0.45;;
39930;SDS011;26635;-35.248;149.138;2023-04-24T03:35:23;2.13;;;0.52;;
39930;SDS011;26635;-35.248;149.138;2023-04-24T03:37:53;2.45;;;0.60;;
39930;SDS011;26635;-35.248;149.138;2023-04-24T03:40:24;2.33;;;0.82;;
39930;SDS011;26635;-35.248;149.138;2023-04-24T03:43:05;1.48;;;0.50;;
39930;SDS011;26635;-35.248;149.138;2023-04-24T03:45:40;1.88;;;0.50;;
39930;SDS011;26635;-35.248;149.138;2023-04-24T03:48:23;4.20;;;0.65;;
39930;SDS011;26635;-35.248;149.138;2023-04-24T03:50:53;2.47;;;1.02;;
39930;SDS011;26635;-35.248;149.138;2023-04-24T03:53:24;2.15;;;0.73;;
39930;SDS011;26635;-35.248;149.138;2023-04-24T03:55:55;3.08;;;0.93;;
39930;SDS011;26635;-35.248;149.138;2023-04-24T03:58:26;2.15;;;1.00;;
39930;SDS011;26635;-35.248;149.138;2023-04-24T04:01:17;2.00;;;0.70;;
39930;SDS011;26635;-35.248;149.138;2023-04-24T04:03:58;1.42;;;0.65;;
39930;SDS011;26635;-35.248;149.138;2023-04-24T04:06:34;3.05;;;0.65;;
39930;SDS011;26635;-35.248;149.138;2023-04-24T04:09:04;3.20;;;0.70;;
39930;SDS011;26635;-35.248;149.138;2023-04-24T04:11:58;2.72;;;0.70;;
39930;SDS011;26635;-35.248;149.138;2023-04-24T04:14:59;3.28;;;0.88;;
39930;SDS011;26635;-35.248;149.138;2023-04-24T04:17:29;3.70;;;0.98;;
39930;SDS011;26635;-35.248;149.138;2023-04-24T04:20:01;2.08;;;0.50;;
39930;SDS011;26635;-35.248;149.138;2023-04-24T04:22:39;1.48;;;0.98;;
39930;SDS011;26635;-35.248;149.138;2023-04-24T04:25:10;3.45;;;0.80;;
39930;SDS011;26635;-35.248;149.138;2023-04-24T04:27:43;3.95;;;1.40;;
39930;SDS011;26635;-35.248;149.138;2023-04-24T04:30:37;3.38;;;0.77;;
39930;SDS011;26635;-35.248;149.138;2023-04-24T04:33:12;2.63;;;0.70;;
39930;SDS011;26635;-35.248;149.138;2023-04-24T04:38:25;2.03;;;0.63;;
39930;SDS011;26635;-35.248;149.138;2023-04-24T04:40:58;2.13;;;0.85;;
39930;SDS011;26635;-35.248;149.138;2023-04-24T04:43:28;1.48;;;0.50;;
39930;SDS011;26635;-35.248;149.138;2023-04-24T04:45:59;1.30;;;0.60;;
39930;SDS011;26635;-35.248;149.138;2023-04-24T04:48:32;1.50;;;0.60;;
39930;SDS011;26635;-35.248;149.138;2023-04-24T04:51:02;2.95;;;0.70;;
39930;SDS011;26635;-35.248;149.138;2023-04-24T04:53:34;2.05;;;0.80;;
39930;SDS011;26635;-35.248;149.138;2023-04-24T04:56:06;4.72;;;0.95;;
39930;SDS011;26635;-35.248;149.138;2023-04-24T04:58:37;2.38;;;1.08;;
39930;SDS011;26635;-35.248;149.138;2023-04-24T05:01:08;3.30;;;0.80;;
39930;SDS011;26635;-35.248;149.138;2023-04-24T05:03:38;3.88;;;1.10;;
39930;SDS011;26635;-35.248;149.138;2023-04-24T05:06:09;3.17;;;0.68;;
39930;SDS011;26635;-35.248;149.138;2023-04-24T05:08:41;5.28;;;1.15;;
39930;SDS011;26635;-35.248;149.138;2023-04-24T05:11:12;2.33;;;0.60;;
39930;SDS011;26635;-35.248;149.138;2023-04-24T05:13:43;2.00;;;0.68;;
39930;SDS011;26635;-35.248;149.138;2023-04-24T05:16:24;1.92;;;0.45;;
39930;SDS011;26635;-35.248;149.138;2023-04-24T05:18:56;2.08;;;0.70;;
39930;SDS011;26635;-35.248;149.138;2023-04-24T05:21:27;3.63;;;1.10;;
39930;SDS011;26635;-35.248;149.138;2023-04-24T05:23:58;2.63;;;0.63;;
39930;SDS011;26635;-35.248;149.138;2023-04-24T05:26:28;5.20;;;0.80;;
39930;SDS011;26635;-35.248;149.138;2023-04-24T05:28:59;1.70;;;0.82;;
39930;SDS011;26635;-35.248;149.138;2023-04-24T05:31:34;2.88;;;0.52;;
39930;SDS011;26635;-35.248;149.138;2023-04-24T05:34:04;2.63;;;0.68;;
39930;SDS011;26635;-35.248;149.138;2023-04-24T05:36:35;3.92;;;0.90;;
39930;SDS011;26635;-35.248;149.138;2023-04-24T05:39:06;2.08;;;0.70;;
39930;SDS011;26635;-35.248;149.138;2023-04-24T05:41:37;4.07;;;0.90;;
39930;SDS011;26635;-35.248;149.138;2023-04-24T05:44:08;1.25;;;0.50;;
39930;SDS011;26635;-35.248;149.138;2023-04-24T05:46:39;3.60;;;0.70;;
39930;SDS011;26635;-35.248;149.138;2023-04-24T05:49:11;3.35;;;1.20;;
39930;SDS011;26635;-35.248;149.138;2023-04-24T05:51:42;2.50;;;0.65;;
39930;SDS011;26635;-35.248;149.138;2023-04-24T05:54:13;1.77;;;0.82;;
39930;SDS011;26635;-35.248;149.138;2023-04-24T05:56:45;2.10;;;0.70;;
39930;SDS011;26635;-35.248;149.138;2023-04-24T05:59:19;2.35;;;0.60;;
39930;SDS011;26635;-35.248;149.138;2023-04-24T06:01:51;3.63;;;0.90;;
39930;SDS011;26635;-35.248;149.138;2023-04-24T06:04:25;3.10;;;0.70;;
39930;SDS011;26635;-35.248;149.138;2023-04-24T06:07:04;2.13;;;0.70;;
39930;SDS011;26635;-35.248;149.138;2023-04-24T06:09:35;2.10;;;0.90;;
39930;SDS011;26635;-35.248;149.138;2023-04-24T06:12:06;1.73;;;0.73;;
39930;SDS011;26635;-35.248;149.138;2023-04-24T06:14:49;2.90;;;0.70;;
39930;SDS011;26635;-35.248;149.138;2023-04-24T06:17:20;1.75;;;0.80;;
39930;SDS011;26635;-35.248;149.138;2023-04-24T06:19:51;2.55;;;0.80;;
39930;SDS011;26635;-35.248;149.138;2023-04-24T06:22:22;2.45;;;0.80;;
39930;SDS011;26635;-35.248;149.138;2023-04-24T06:24:53;2.55;;;0.60;;
39930;SDS011;26635;-35.248;149.138;2023-04-24T06:27:25;1.85;;;0.63;;
39930;SDS011;26635;-35.248;149.138;2023-04-24T06:29:59;2.95;;;1.08;;
39930;SDS011;26635;-35.248;149.138;2023-04-24T06:32:30;1.60;;;0.55;;
39930;SDS011;26635;-35.248;149.138;2023-04-24T06:35:01;3.60;;;0.82;;
39930;SDS011;26635;-35.248;149.138;2023-04-24T06:37:33;3.30;;;0.80;;
39930;SDS011;26635;-35.248;149.138;2023-04-24T06:40:05;2.08;;;0.90;;
39930;SDS011;26635;-35.248;149.138;2023-04-24T06:42:39;2.38;;;0.95;;
39930;SDS011;26635;-35.248;149.138;2023-04-24T06:45:10;3.08;;;1.35;;
39930;SDS011;26635;-35.248;149.138;2023-04-24T06:47:40;2.13;;;0.80;;
39930;SDS011;26635;-35.248;149.138;2023-04-24T06:50:11;2.72;;;0.65;;
39930;SDS011;26635;-35.248;149.138;2023-04-24T06:52:42;2.05;;;0.70;;
39930;SDS011;26635;-35.248;149.138;2023-04-24T06:55:17;3.33;;;0.98;;
39930;SDS011;26635;-35.248;149.138;2023-04-24T06:58:11;4.70;;;1.88;;
39930;SDS011;26635;-35.248;149.138;2023-04-24T07:00:57;4.20;;;1.40;;
39930;SDS011;26635;-35.248;149.138;2023-04-24T07:03:38;4.57;;;2.13;;
39930;SDS011;26635;-35.248;149.138;2023-04-24T07:06:16;2.30;;;1.30;;
39930;SDS011;26635;-35.248;149.138;2023-04-24T07:09:24;2.15;;;0.70;;
39930;SDS011;26635;-35.248;149.138;2023-04-24T07:12:11;3.92;;;0.90;;
39930;SDS011;26635;-35.248;149.138;2023-04-24T07:14:45;2.27;;;0.87;;
39930;SDS011;26635;-35.248;149.138;2023-04-24T07:17:22;2.15;;;1.20;;
39930;SDS011;26635;-35.248;149.138;2023-04-24T07:20:31;5.07;;;1.80;;
39930;SDS011;26635;-35.248;149.138;2023-04-24T07:23:39;6.80;;;3.75;;
39930;SDS011;26635;-35.248;149.138;2023-04-24T07:26:59;6.40;;;2.55;;
39930;SDS011;26635;-35.248;149.138;2023-04-24T07:29:44;2.65;;;1.45;;
39930;SDS011;26635;-35.248;149.138;2023-04-24T07:32:21;2.45;;;1.35;;
39930;SDS011;26635;-35.248;149.138;2023-04-24T07:34:51;4.30;;;1.58;;
39930;SDS011;26635;-35.248;149.138;2023-04-24T07:37:25;3.47;;;0.90;;
39930;SDS011;26635;-35.248;149.138;2023-04-24T07:39:56;3.45;;;1.52;;
39930;SDS011;26635;-35.248;149.138;2023-04-24T07:42:28;6.75;;;1.90;;
39930;SDS011;26635;-35.248;149.138;2023-04-24T07:45:05;2.75;;;1.35;;
39930;SDS011;26635;-35.248;149.138;2023-04-24T07:47:37;2.47;;;1.25;;
39930;SDS011;26635;-35.248;149.138;2023-04-24T07:50:13;5.32;;;1.77;;
39930;SDS011;26635;-35.248;149.138;2023-04-24T07:52:49;4.30;;;1.55;;
39930;SDS011;26635;-35.248;149.138;2023-04-24T07:55:20;3.08;;;1.10;;
39930;SDS011;26635;-35.248;149.138;2023-04-24T07:57:54;2.83;;;1.25;;
39930;SDS011;26635;-35.248;149.138;2023-04-24T08:00:24;2.08;;;0.75;;
39930;SDS011;26635;-35.248;149.138;2023-04-24T08:02:57;1.63;;;0.70;;
39930;SDS011;26635;-35.248;149.138;2023-04-24T08:05:31;2.05;;;0.75;;
39930;SDS011;26635;-35.248;149.138;2023-04-24T08:08:11;2.03;;;0.80;;
39930;SDS011;26635;-35.248;149.138;2023-04-24T08:10:52;1.75;;;0.63;;
39930;SDS011;26635;-35.248;149.138;2023-04-24T08:13:36;1.80;;;0.65;;
39930;SDS011;26635;-35.248;149.138;2023-04-24T08:16:08;2.20;;;1.10;;
39930;SDS011;26635;-35.248;149.138;2023-04-24T08:18:43;4.28;;;1.48;;
39930;SDS011;26635;-35.248;149.138;2023-04-24T08:21:13;2.28;;;0.63;;
39930;SDS011;26635;-35.248;149.138;2023-04-24T08:23:54;1.50;;;0.47;;
39930;SDS011;26635;-35.248;149.138;2023-04-24T08:26:37;1.33;;;0.70;;
39930;SDS011;26635;-35.248;149.138;2023-04-24T08:29:08;4.25;;;1.02;;
39930;SDS011;26635;-35.248;149.138;2023-04-24T08:31:38;2.08;;;0.45;;
39930;SDS011;26635;-35.248;149.138;2023-04-24T08:34:12;4.30;;;0.70;;
39930;SDS011;26635;-35.248;149.138;2023-04-24T08:36:43;3.05;;;0.75;;
39930;SDS011;26635;-35.248;149.138;2023-04-24T08:39:15;1.75;;;0.60;;
39930;SDS011;26635;-35.248;149.138;2023-04-24T08:41:46;2.63;;;1.00;;
39930;SDS011;26635;-35.248;149.138;2023-04-24T08:44:22;3.08;;;0.65;;
39930;SDS011;26635;-35.248;149.138;2023-04-24T08:46:53;1.77;;;0.75;;
39930;SDS011;26635;-35.248;149.138;2023-04-24T08:49:24;2.00;;;0.95;;
39930;SDS011;26635;-35.248;149.138;2023-04-24T08:51:57;4.65;;;1.75;;
39930;SDS011;26635;-35.248;149.138;2023-04-24T08:54:29;4.68;;;1.50;;
39930;SDS011;26635;-35.248;149.138;2023-04-24T08:57:01;2.63;;;1.55;;
39930;SDS011;26635;-35.248;149.138;2023-04-24T08:59:34;2.65;;;1.08;;
39930;SDS011;26635;-35.248;149.138;2023-04-24T09:02:09;5.05;;;1.50;;
39930;SDS011;26635;-35.248;149.138;2023-04-24T09:04:40;4.10;;;1.40;;
39930;SDS011;26635;-35.248;149.138;2023-04-24T09:07:17;6.45;;;1.50;;
39930;SDS011;26635;-35.248;149.138;2023-04-24T09:09:49;5.00;;;1.52;;
39930;SDS011;26635;-35.248;149.138;2023-04-24T09:12:21;2.13;;;1.45;;
39930;SDS011;26635;-35.248;149.138;2023-04-24T09:14:54;2.05;;;1.55;;
39930;SDS011;26635;-35.248;149.138;2023-04-24T09:17:26;4.38;;;1.38;;
39930;SDS011;26635;-35.248;149.138;2023-04-24T09:20:02;3.00;;;0.90;;
39930;SDS011;26635;-35.248;149.138;2023-04-24T09:22:34;4.07;;;1.00;;
39930;SDS011;26635;-35.248;149.138;2023-04-24T09:25:09;2.85;;;0.98;;
39930;SDS011;26635;-35.248;149.138;2023-04-24T09:27:44;4.43;;;0.90;;
39930;SDS011;26635;-35.248;149.138;2023-04-24T09:30:20;2.90;;;1.10;;
39930;SDS011;26635;-35.248;149.138;2023-04-24T09:33:14;4.32;;;1.00;;
39930;SDS011;26635;-35.248;149.138;2023-04-24T09:35:51;3.85;;;1.30;;
39930;SDS011;26635;-35.248;149.138;2023-04-24T09:38:32;3.65;;;1.13;;
39930;SDS011;26635;-35.248;149.138;2023-04-24T09:41:05;3.95;;;1.00;;
39930;SDS011;26635;-35.248;149.138;2023-04-24T09:43:39;5.55;;;1.60;;
39930;SDS011;26635;-35.248;149.138;2023-04-24T09:46:10;5.25;;;1.27;;
39930;SDS011;26635;-35.248;149.138;2023-04-24T09:48:42;3.95;;;1.10;;
39930;SDS011;26635;-35.248;149.138;2023-04-24T09:51:17;5.97;;;1.27;;
39930;SDS011;26635;-35.248;149.138;2023-04-24T09:54:02;3.45;;;1.02;;
39930;SDS011;26635;-35.248;149.138;2023-04-24T09:59:16;2.60;;;1.00;;
39930;SDS011;26635;-35.248;149.138;2023-04-24T10:01:48;3.03;;;1.30;;
39930;SDS011;26635;-35.248;149.138;2023-04-24T10:04:20;2.33;;;0.80;;
39930;SDS011;26635;-35.248;149.138;2023-04-24T10:06:54;7.78;;;1.10;;
39930;SDS011;26635;-35.248;149.138;2023-04-24T10:09:26;4.55;;;0.85;;
39930;SDS011;26635;-35.248;149.138;2023-04-24T10:11:58;3.25;;;1.05;;
39930;SDS011;26635;-35.248;149.138;2023-04-24T10:14:31;4.50;;;0.95;;
39930;SDS011;26635;-35.248;149.138;2023-04-24T10:17:01;4.13;;;1.38;;
39930;SDS011;26635;-35.248;149.138;2023-04-24T10:19:33;1.92;;;0.75;;
39930;SDS011;26635;-35.248;149.138;2023-04-24T10:22:05;4.20;;;1.00;;
39930;SDS011;26635;-35.248;149.138;2023-04-24T10:27:13;3.80;;;1.20;;
39930;SDS011;26635;-35.248;149.138;2023-04-24T10:29:45;3.53;;;1.17;;
39930;SDS011;26635;-35.248;149.138;2023-04-24T10:32:19;2.72;;;1.58;;
39930;SDS011;26635;-35.248;149.138;2023-04-24T10:34:49;2.05;;;1.10;;
39930;SDS011;26635;-35.248;149.138;2023-04-24T10:37:24;2.45;;;1.08;;
39930;SDS011;26635;-35.248;149.138;2023-04-24T10:39:58;3.22;;;1.75;;
39930;SDS011;26635;-35.248;149.138;2023-04-24T10:42:29;4.03;;;1.50;;
39930;SDS011;26635;-35.248;149.138;2023-04-24T10:45:07;5.45;;;1.90;;
39930;SDS011;26635;-35.248;149.138;2023-04-24T10:47:58;3.90;;;1.30;;
39930;SDS011;26635;-35.248;149.138;2023-04-24T10:50:46;3.95;;;1.20;;
39930;SDS011;26635;-35.248;149.138;2023-04-24T10:53:21;6.28;;;1.40;;
39930;SDS011;26635;-35.248;149.138;2023-04-24T10:58:37;4.95;;;1.08;;
39930;SDS011;26635;-35.248;149.138;2023-04-24T11:01:29;3.78;;;1.40;;
39930;SDS011;26635;-35.248;149.138;2023-04-24T11:04:03;2.70;;;1.20;;
39930;SDS011;26635;-35.248;149.138;2023-04-24T11:06:35;4.20;;;1.45;;
39930;SDS011;26635;-35.248;149.138;2023-04-24T11:09:07;2.70;;;1.40;;
39930;SDS011;26635;-35.248;149.138;2023-04-24T11:11:46;2.67;;;1.63;;
39930;SDS011;26635;-35.248;149.138;2023-04-24T11:14:17;4.78;;;1.40;;
39930;SDS011;26635;-35.248;149.138;2023-04-24T11:16:52;5.38;;;1.77;;
39930;SDS011;26635;-35.248;149.138;2023-04-24T11:19:25;3.95;;;1.30;;
39930;SDS011;26635;-35.248;149.138;2023-04-24T11:22:04;4.55;;;1.50;;
39930;SDS011;26635;-35.248;149.138;2023-04-24T11:27:19;4.32;;;1.20;;
39930;SDS011;26635;-35.248;149.138;2023-04-24T11:32:30;4.07;;;1.20;;
39930;SDS011;26635;-35.248;149.138;2023-04-24T11:37:55;3.90;;;1.75;;
39930;SDS011;26635;-35.248;149.138;2023-04-24T11:40:29;3.45;;;1.90;;
39930;SDS011;26635;-35.248;149.138;2023-04-24T11:43:00;6.47;;;2.53;;
39930;SDS011;26635;-35.248;149.138;2023-04-24T11:45:33;4.07;;;1.60;;
39930;SDS011;26635;-35.248;149.138;2023-04-24T11:48:04;3.65;;;2.05;;
39930;SDS011;26635;-35.248;149.138;2023-04-24T11:50:35;3.85;;;2.42;;
39930;SDS011;26635;-35.248;149.138;2023-04-24T11:53:06;5.75;;;1.48;;
39930;SDS011;26635;-35.248;149.138;2023-04-24T11:55:36;3.90;;;1.45;;
39930;SDS011;26635;-35.248;149.138;2023-04-24T11:58:08;5.55;;;1.73;;
39930;SDS011;26635;-35.248;149.138;2023-04-24T12:00:41;5.10;;;2.00;;
39930;SDS011;26635;-35.248;149.138;2023-04-24T12:03:12;6.43;;;1.77;;
39930;SDS011;26635;-35.248;149.138;2023-04-24T12:05:44;4.10;;;1.33;;
39930;SDS011;26635;-35.248;149.138;2023-04-24T12:08:29;4.28;;;1.80;;
39930;SDS011;26635;-35.248;149.138;2023-04-24T12:11:04;4.57;;;1.63;;
39930;SDS011;26635;-35.248;149.138;2023-04-24T12:13:37;2.60;;;1.35;;
39930;SDS011;26635;-35.248;149.138;2023-04-24T12:16:07;4.68;;;1.20;;
39930;SDS011;26635;-35.248;149.138;2023-04-24T12:18:42;3.72;;;1.58;;
39930;SDS011;26635;-35.248;149.138;2023-04-24T12:21:19;4.13;;;1.60;;
39930;SDS011;26635;-35.248;149.138;2023-04-24T12:23:53;2.53;;;1.25;;
39930;SDS011;26635;-35.248;149.138;2023-04-24T12:26:25;5.00;;;1.50;;
39930;SDS011;26635;-35.248;149.138;2023-04-24T12:29:01;2.55;;;1.40;;
39930;SDS011;26635;-35.248;149.138;2023-04-24T12:31:34;3.85;;;1.55;;
39930;SDS011;26635;-35.248;149.138;2023-04-24T12:34:17;4.00;;;1.40;;
39930;SDS011;26635;-35.248;149.138;2023-04-24T12:36:51;4.13;;;1.75;;
39930;SDS011;26635;-35.248;149.138;2023-04-24T12:39:22;3.75;;;1.67;;
39930;SDS011;26635;-35.248;149.138;2023-04-24T12:41:56;8.95;;;3.78;;
39930;SDS011;26635;-35.248;149.138;2023-04-24T12:44:35;6.78;;;3.15;;
39930;SDS011;26635;-35.248;149.138;2023-04-24T12:47:06;4.93;;;2.53;;
39930;SDS011;26635;-35.248;149.138;2023-04-24T12:49:38;7.53;;;3.05;;
39930;SDS011;26635;-35.248;149.138;2023-04-24T12:52:10;5.30;;;2.95;;
39930;SDS011;26635;-35.248;149.138;2023-04-24T12:54:41;8.05;;;3.35;;
39930;SDS011;26635;-35.248;149.138;2023-04-24T12:57:11;4.75;;;3.30;;
39930;SDS011;26635;-35.248;149.138;2023-04-24T12:59:42;6.03;;;3.22;;
39930;SDS011;26635;-35.248;149.138;2023-04-24T13:02:14;5.05;;;3.22;;
39930;SDS011;26635;-35.248;149.138;2023-04-24T13:04:50;5.07;;;2.70;;
39930;SDS011;26635;-35.248;149.138;2023-04-24T13:07:21;5.85;;;3.17;;
39930;SDS011;26635;-35.248;149.138;2023-04-24T13:09:52;6.80;;;3.05;;
39930;SDS011;26635;-35.248;149.138;2023-04-24T13:12:24;5.72;;;2.65;;
39930;SDS011;26635;-35.248;149.138;2023-04-24T13:14:55;5.32;;;3.33;;
39930;SDS011;26635;-35.248;149.138;2023-04-24T13:17:25;7.22;;;3.20;;
39930;SDS011;26635;-35.248;149.138;2023-04-24T13:19:55;4.72;;;2.80;;
39930;SDS011;26635;-35.248;149.138;2023-04-24T13:22:26;4.85;;;2.30;;
39930;SDS011;26635;-35.248;149.138;2023-04-24T13:24:58;5.47;;;2.22;;
39930;SDS011;26635;-35.248;149.138;2023-04-24T13:27:30;7.25;;;3.10;;
39930;SDS011;26635;-35.248;149.138;2023-04-24T13:30:02;8.07;;;2.60;;
39930;SDS011;26635;-35.248;149.138;2023-04-24T13:32:34;5.35;;;2.35;;
39930;SDS011;26635;-35.248;149.138;2023-04-24T13:35:07;4.50;;;2.58;;
39930;SDS011;26635;-35.248;149.138;2023-04-24T13:37:38;7.35;;;2.05;;
39930;SDS011;26635;-35.248;149.138;2023-04-24T13:40:09;4.75;;;2.10;;
39930;SDS011;26635;-35.248;149.138;2023-04-24T13:42:40;5.20;;;2.10;;
39930;SDS011;26635;-35.248;149.138;2023-04-24T13:45:12;4.80;;;2.13;;
39930;SDS011;26635;-35.248;149.138;2023-04-24T13:47:51;3.78;;;2.05;;
39930;SDS011;26635;-35.248;149.138;2023-04-24T13:50:26;5.65;;;2.47;;
39930;SDS011;26635;-35.248;149.138;2023-04-24T13:52:56;3.53;;;2.05;;
39930;SDS011;26635;-35.248;149.138;2023-04-24T13:55:29;5.97;;;2.28;;
39930;SDS011;26635;-35.248;149.138;2023-04-24T13:57:59;4.55;;;2.58;;
39930;SDS011;26635;-35.248;149.138;2023-04-24T14:00:30;4.13;;;1.73;;
39930;SDS011;26635;-35.248;149.138;2023-04-24T14:03:01;5.75;;;2.65;;
39930;SDS011;26635;-35.248;149.138;2023-04-24T14:05:31;9.38;;;3.50;;
39930;SDS011;26635;-35.248;149.138;2023-04-24T14:08:04;7.50;;;2.65;;
39930;SDS011;26635;-35.248;149.138;2023-04-24T14:10:35;5.00;;;2.30;;
39930;SDS011;26635;-35.248;149.138;2023-04-24T14:13:06;7.15;;;2.55;;
39930;SDS011;26635;-35.248;149.138;2023-04-24T14:15:36;4.45;;;2.50;;
39930;SDS011;26635;-35.248;149.138;2023-04-24T14:18:07;4.22;;;2.45;;
39930;SDS011;26635;-35.248;149.138;2023-04-24T14:20:38;5.50;;;2.38;;
39930;SDS011;26635;-35.248;149.138;2023-04-24T14:23:09;7.07;;;2.58;;
39930;SDS011;26635;-35.248;149.138;2023-04-24T14:25:42;5.80;;;2.83;;
39930;SDS011;26635;-35.248;149.138;2023-04-24T14:28:15;4.35;;;1.90;;
39930;SDS011;26635;-35.248;149.138;2023-04-24T14:30:46;5.55;;;2.17;;
39930;SDS011;26635;-35.248;149.138;2023-04-24T14:33:17;7.75;;;2.45;;
39930;SDS011;26635;-35.248;149.138;2023-04-24T14:35:48;6.32;;;2.72;;
39930;SDS011;26635;-35.248;149.138;2023-04-24T14:38:19;5.18;;;2.00;;
39930;SDS011;26635;-35.248;149.138;2023-04-24T14:40:52;4.68;;;2.03;;
39930;SDS011;26635;-35.248;149.138;2023-04-24T14:43:33;5.55;;;2.20;;
39930;SDS011;26635;-35.248;149.138;2023-04-24T14:46:04;6.68;;;2.20;;
39930;SDS011;26635;-35.248;149.138;2023-04-24T14:48:35;7.65;;;2.35;;
39930;SDS011;26635;-35.248;149.138;2023-04-24T14:51:05;4.53;;;1.85;;
39930;SDS011;26635;-35.248;149.138;2023-04-24T14:53:36;3.47;;;1.80;;
39930;SDS011;26635;-35.248;149.138;2023-04-24T14:56:07;4.72;;;2.03;;
39930;SDS011;26635;-35.248;149.138;2023-04-24T14:58:37;6.88;;;1.85;;
39930;SDS011;26635;-35.248;149.138;2023-04-24T15:01:08;5.30;;;1.92;;
39930;SDS011;26635;-35.248;149.138;2023-04-24T15:03:38;4.32;;;2.40;;
39930;SDS011;26635;-35.248;149.138;2023-04-24T15:06:09;3.75;;;2.17;;
39930;SDS011;26635;-35.248;149.138;2023-04-24T15:08:40;6.43;;;2.15;;
39930;SDS011;26635;-35.248;149.138;2023-04-24T15:11:14;3.97;;;1.80;;